createdAt,value
2022-10-14T00:01:10.441Z,14.63
2022-10-14T00:03:38.554Z,14.03
2022-10-14T00:06:12.259Z,14.37
2022-10-14T00:08:39.859Z,14.87
2022-10-14T00:11:12.726Z,14.50
2022-10-14T00:13:40.029Z,14.57
2022-10-14T00:16:14.361Z,15.27
2022-10-14T00:18:41.427Z,14.27
2022-10-14T00:21:08.800Z,16.13
2022-10-14T00:23:35.822Z,14.87
2022-10-14T00:26:02.911Z,13.73
2022-10-14T00:28:30.686Z,16.63
2022-10-14T00:31:01.121Z,15.13
2022-10-14T00:33:29.360Z,16.30
2022-10-14T00:36:04.613Z,16.30
2022-10-14T00:38:34.702Z,16.63
2022-10-14T00:41:02.137Z,16.30
2022-10-14T00:43:30.076Z,15.43
2022-10-14T00:45:57.058Z,15.77
2022-10-14T00:48:26.318Z,15.83
2022-10-14T00:50:57.388Z,18.00
2022-10-14T00:53:24.471Z,18.37
2022-10-14T00:55:53.106Z,18.20
2022-10-14T00:58:23.811Z,15.73
2022-10-14T01:00:50.971Z,17.33
2022-10-14T01:03:21.304Z,18.47
2022-10-14T01:06:09.235Z,17.27
2022-10-14T01:08:47.394Z,18.80
2022-10-14T01:11:29.364Z,18.87
2022-10-14T01:14:37.182Z,18.63
2022-10-14T01:17:21.929Z,18.40
2022-10-14T01:20:42.571Z,18.93
2022-10-14T01:23:18.292Z,17.70
2022-10-14T01:26:18.291Z,17.40
2022-10-14T01:28:51.631Z,19.07
2022-10-14T01:31:26.928Z,18.27
2022-10-14T01:33:58.385Z,20.50
2022-10-14T01:36:35.738Z,18.93
2022-10-14T01:39:02.674Z,18.80
2022-10-14T01:41:34.908Z,19.00
2022-10-14T01:44:10.183Z,19.40
2022-10-14T01:46:43.213Z,20.73
2022-10-14T01:49:15.867Z,21.03
2022-10-14T01:52:22.749Z,19.50
2022-10-14T01:54:53.497Z,21.43
2022-10-14T01:57:27.393Z,21.33
2022-10-14T01:59:56.081Z,21.03
2022-10-14T02:02:24.648Z,21.77
2022-10-14T02:04:52.298Z,23.53
2022-10-14T02:07:32.222Z,22.87
2022-10-14T02:10:08.816Z,24.50
2022-10-14T02:12:51.114Z,24.27
2022-10-14T02:15:38.561Z,22.77
2022-10-14T02:18:29.678Z,22.50
2022-10-14T02:21:20.659Z,21.67
2022-10-14T02:23:56.637Z,22.33
2022-10-14T02:26:26.479Z,23.40
2022-10-14T02:28:55.516Z,23.10
2022-10-14T02:31:25.056Z,24.77
2022-10-14T02:33:56.793Z,22.10
2022-10-14T02:36:25.761Z,24.57
2022-10-14T02:38:56.146Z,22.90
2022-10-14T02:41:27.734Z,22.83
2022-10-14T02:43:54.789Z,23.83
2022-10-14T02:46:22.784Z,21.43
2022-10-14T02:48:50.468Z,22.90
2022-10-14T02:51:17.737Z,22.77
2022-10-14T02:53:44.873Z,23.33
2022-10-14T02:56:15.777Z,22.63
2022-10-14T02:58:42.853Z,22.37
2022-10-14T03:01:10.286Z,22.27
2022-10-14T03:03:38.845Z,22.40
2022-10-14T03:06:06.053Z,21.83
2022-10-14T03:08:34.347Z,23.47
2022-10-14T03:11:02.150Z,23.30
2022-10-14T03:13:29.779Z,22.10
2022-10-14T03:15:56.930Z,23.30
2022-10-14T03:18:25.851Z,22.27
2022-10-14T03:20:58.623Z,22.97
2022-10-14T03:23:32.759Z,20.17
2022-10-14T03:25:59.753Z,21.97
2022-10-14T03:28:33.275Z,23.30
2022-10-14T03:31:23.509Z,22.70
2022-10-14T03:34:05.772Z,22.27
2022-10-14T03:36:34.547Z,23.60
2022-10-14T03:39:01.730Z,22.33
2022-10-14T03:41:36.816Z,23.63
2022-10-14T03:44:04.980Z,21.90
2022-10-14T03:46:33.307Z,23.37
2022-10-14T03:49:01.329Z,22.93
2022-10-14T03:51:28.386Z,22.27
2022-10-14T03:54:06.813Z,23.70
2022-10-14T03:56:33.949Z,21.80
2022-10-14T03:59:01.570Z,22.60
2022-10-14T04:01:28.640Z,21.73
2022-10-14T04:04:20.629Z,22.13
2022-10-14T04:06:47.796Z,22.87
2022-10-14T04:09:17.596Z,23.83
2022-10-14T04:11:44.745Z,23.20
2022-10-14T04:14:26.872Z,22.30
2022-10-14T04:16:53.894Z,22.30
2022-10-14T04:19:20.929Z,24.43
2022-10-14T04:21:49.031Z,23.83
2022-10-14T04:24:19.699Z,24.37
2022-10-14T04:26:52.556Z,23.40
2022-10-14T04:29:37.944Z,25.17
2022-10-14T04:32:12.326Z,23.40
2022-10-14T04:34:39.579Z,24.30
2022-10-14T04:37:08.289Z,23.17
2022-10-14T04:39:53.994Z,24.57
2022-10-14T04:42:22.184Z,23.87
2022-10-14T04:44:53.516Z,22.93
2022-10-14T04:47:27.077Z,24.73
2022-10-14T04:49:59.022Z,24.27
2022-10-14T04:52:28.137Z,24.37
2022-10-14T04:55:05.104Z,27.03
2022-10-14T04:57:40.505Z,26.43
2022-10-14T05:00:08.361Z,26.33
2022-10-14T05:02:44.313Z,25.40
2022-10-14T05:05:11.725Z,25.37
2022-10-14T05:07:42.824Z,24.30
2022-10-14T05:10:24.347Z,24.13
2022-10-14T05:12:52.084Z,24.57
2022-10-14T05:15:19.663Z,22.23
2022-10-14T05:17:58.711Z,23.83
2022-10-14T05:20:39.365Z,22.83
2022-10-14T05:23:07.104Z,23.37
2022-10-14T05:25:34.079Z,23.57
2022-10-14T05:28:01.326Z,24.37
2022-10-14T05:30:33.654Z,25.27
2022-10-14T05:33:03.471Z,24.13
2022-10-14T05:35:57.134Z,25.57
2022-10-14T05:38:17.711Z,23.93
2022-10-14T05:40:55.144Z,24.67
2022-10-14T05:43:29.273Z,24.83
2022-10-14T05:45:59.997Z,23.43
2022-10-14T05:48:33.914Z,25.37
2022-10-14T05:51:03.407Z,24.53
2022-10-14T05:53:33.058Z,25.97
2022-10-14T05:56:09.735Z,26.03
2022-10-14T05:58:39.389Z,26.27
2022-10-14T06:01:09.854Z,25.30
2022-10-14T06:03:40.117Z,27.27
2022-10-14T06:06:11.584Z,26.63
2022-10-14T06:08:38.942Z,26.40
2022-10-14T06:11:06.350Z,26.40
2022-10-14T06:13:34.107Z,26.73
2022-10-14T06:16:08.614Z,27.60
2022-10-14T06:18:36.566Z,26.97
2022-10-14T06:21:12.782Z,28.90
2022-10-14T06:23:39.845Z,27.90
2022-10-14T06:26:09.760Z,28.00
2022-10-14T06:28:38.063Z,26.40
2022-10-14T06:31:05.463Z,28.03
2022-10-14T06:33:32.478Z,27.27
2022-10-14T06:36:01.223Z,28.13
2022-10-14T06:38:28.243Z,27.43
2022-10-14T06:40:55.294Z,27.93
2022-10-14T06:43:22.757Z,26.50
2022-10-14T06:45:50.200Z,27.30
2022-10-14T06:48:17.151Z,26.97
2022-10-14T06:50:44.233Z,25.33
2022-10-14T06:53:11.254Z,26.67
2022-10-14T06:55:38.265Z,26.47
2022-10-14T06:58:05.233Z,26.13
2022-10-14T07:00:32.174Z,25.97
2022-10-14T07:02:59.658Z,24.33
2022-10-14T07:05:27.454Z,25.10
2022-10-14T07:07:54.468Z,25.03
2022-10-14T07:10:21.464Z,25.10
2022-10-14T07:12:48.663Z,24.70
2022-10-14T07:15:15.703Z,23.07
2022-10-14T07:17:42.766Z,23.13
2022-10-14T07:20:10.323Z,22.37
2022-10-14T07:22:38.757Z,22.33
2022-10-14T07:25:06.869Z,22.37
2022-10-14T07:27:34.121Z,21.47
2022-10-14T07:30:01.774Z,22.23
2022-10-14T07:32:28.976Z,22.20
2022-10-14T07:34:56.132Z,21.87
2022-10-14T07:37:24.019Z,22.20
2022-10-14T07:39:51.704Z,21.13
2022-10-14T07:42:21.777Z,23.03
2022-10-14T07:44:48.825Z,23.17
2022-10-14T07:47:16.628Z,23.23
2022-10-14T07:49:43.610Z,23.27
2022-10-14T07:52:10.617Z,24.53
2022-10-14T07:54:37.669Z,24.97
2022-10-14T07:57:04.678Z,25.53
2022-10-14T07:59:31.653Z,23.30
2022-10-14T08:01:59.186Z,22.90
2022-10-14T08:04:26.300Z,21.73
2022-10-14T08:06:53.375Z,24.17
2022-10-14T08:09:20.478Z,24.70
2022-10-14T08:11:48.072Z,24.43
2022-10-14T08:14:15.361Z,24.77
2022-10-14T08:16:42.309Z,24.53
2022-10-14T08:19:14.644Z,24.03
2022-10-14T08:21:43.414Z,25.37
2022-10-14T08:24:11.299Z,25.67
2022-10-14T08:26:40.849Z,23.87
2022-10-14T08:29:10.992Z,24.43
2022-10-14T08:31:38.529Z,24.90
2022-10-14T08:34:05.539Z,24.23
2022-10-14T08:36:32.563Z,24.00
2022-10-14T08:38:59.700Z,28.47
2022-10-14T08:41:39.172Z,24.47
2022-10-14T08:44:27.225Z,24.50
2022-10-14T08:46:54.124Z,28.20
2022-10-14T08:49:23.941Z,27.27
2022-10-14T08:52:03.376Z,26.50
2022-10-14T08:54:38.189Z,24.67
2022-10-14T08:57:06.431Z,24.67
2022-10-14T08:59:39.115Z,26.80
2022-10-14T09:02:14.939Z,27.30
2022-10-14T09:04:41.973Z,28.60
2022-10-14T09:07:16.854Z,27.83
2022-10-14T09:09:49.121Z,29.33
2022-10-14T09:12:29.650Z,29.13
2022-10-14T09:15:34.505Z,29.67
2022-10-14T09:18:01.682Z,27.33
2022-10-14T09:20:28.745Z,26.33
2022-10-14T09:23:04.961Z,28.60
2022-10-14T09:25:34.973Z,28.50
2022-10-14T09:28:02.249Z,26.93
2022-10-14T09:30:35.086Z,27.63
2022-10-14T09:33:03.617Z,27.07
2022-10-14T09:35:37.652Z,26.90
2022-10-14T09:38:05.204Z,26.83
2022-10-14T09:40:43.972Z,28.23
2022-10-14T09:43:10.942Z,26.83
2022-10-14T09:45:58.369Z,26.23
2022-10-14T09:48:37.809Z,28.70
2022-10-14T09:51:11.056Z,27.30
2022-10-14T09:53:52.514Z,28.30
2022-10-14T09:56:41.617Z,29.50
2022-10-14T09:59:20.346Z,28.23
2022-10-14T10:02:05.685Z,28.60
2022-10-14T10:04:36.858Z,29.43
2022-10-14T10:07:23.093Z,28.70
2022-10-14T10:09:56.099Z,28.03
2022-10-14T10:12:29.161Z,27.70
2022-10-14T10:14:58.749Z,26.13
2022-10-14T10:17:27.837Z,29.13
2022-10-14T10:20:28.595Z,27.40
2022-10-14T10:22:56.915Z,28.33
2022-10-14T10:25:28.502Z,26.17
2022-10-14T10:27:59.182Z,26.87
2022-10-14T10:30:27.388Z,27.40
2022-10-14T10:33:17.130Z,27.67
2022-10-14T10:36:06.855Z,29.27
2022-10-14T10:38:53.452Z,30.43
2022-10-14T10:41:58.612Z,28.83
2022-10-14T10:44:58.916Z,30.00
2022-10-14T10:47:33.413Z,29.43
2022-10-14T10:50:44.726Z,30.33
2022-10-14T10:53:14.738Z,29.10
2022-10-14T10:56:04.439Z,30.17
2022-10-14T10:58:46.753Z,27.40
2022-10-14T11:01:21.440Z,28.97
2022-10-14T11:04:03.524Z,32.60
2022-10-14T11:07:27.033Z,31.40
2022-10-14T11:10:28.546Z,32.47
2022-10-14T11:13:33.380Z,32.97
2022-10-14T11:16:08.080Z,30.20
2022-10-14T11:18:46.411Z,30.33
2022-10-14T11:21:29.849Z,32.23
2022-10-14T11:24:28.054Z,29.60
2022-10-14T11:27:03.674Z,33.83
2022-10-14T11:29:46.407Z,31.13
2022-10-14T11:32:19.551Z,30.03
2022-10-14T11:35:09.857Z,32.33
2022-10-14T11:37:42.672Z,32.50
2022-10-14T11:40:23.782Z,33.03
2022-10-14T11:43:19.973Z,32.87
2022-10-14T11:46:07.910Z,30.37
2022-10-14T11:48:51.230Z,32.07
2022-10-14T11:51:26.279Z,28.87
2022-10-14T11:54:11.279Z,27.77
2022-10-14T11:56:51.885Z,27.10
2022-10-14T12:00:15.070Z,31.03
2022-10-14T12:02:52.473Z,31.13
2022-10-14T12:05:41.029Z,30.30
2022-10-14T12:08:20.351Z,31.53
2022-10-14T12:10:49.806Z,29.90
2022-10-14T12:13:22.367Z,31.47
2022-10-14T12:15:51.809Z,28.47
2022-10-14T12:18:22.846Z,28.77
2022-10-14T12:21:12.497Z,29.10
2022-10-14T12:23:51.663Z,29.83
2022-10-14T12:26:21.613Z,31.43
2022-10-14T12:28:49.400Z,30.40
2022-10-14T12:31:23.715Z,29.77
2022-10-14T12:34:14.024Z,29.43
2022-10-14T12:36:46.207Z,28.70
2022-10-14T12:39:19.320Z,28.77
2022-10-14T12:41:59.486Z,28.80
2022-10-14T12:44:34.967Z,27.63
2022-10-14T12:47:04.716Z,26.90
2022-10-14T12:49:34.927Z,30.60
2022-10-14T12:52:08.796Z,27.30
2022-10-14T12:54:45.292Z,28.13
2022-10-14T12:57:27.855Z,29.60
2022-10-14T12:59:57.355Z,31.03
2022-10-14T13:02:35.252Z,28.50
2022-10-14T13:05:07.116Z,30.80
2022-10-14T13:07:46.414Z,30.90
2022-10-14T13:10:26.006Z,30.37
2022-10-14T13:12:53.243Z,29.67
2022-10-14T13:15:48.155Z,29.93
2022-10-14T13:18:44.306Z,28.13
2022-10-14T13:21:40.949Z,30.57
2022-10-14T13:24:07.859Z,29.17
2022-10-14T13:27:04.107Z,30.33
2022-10-14T13:29:34.088Z,28.23
2022-10-14T13:32:25.957Z,29.20
2022-10-14T13:35:08.644Z,29.10
2022-10-14T13:37:45.991Z,28.90
2022-10-14T13:40:20.488Z,29.73
2022-10-14T13:42:54.816Z,28.50
2022-10-14T13:45:55.919Z,29.20
2022-10-14T13:48:33.404Z,28.87
2022-10-14T13:51:24.568Z,29.23
2022-10-14T13:54:08.816Z,27.60
2022-10-14T13:56:35.784Z,29.30
2022-10-14T13:59:07.988Z,25.10
2022-10-14T14:01:44.086Z,25.60
2022-10-14T14:04:37.448Z,24.97
2022-10-14T14:07:27.783Z,27.73
2022-10-14T14:09:58.759Z,26.70
2022-10-14T14:12:25.857Z,26.93
2022-10-14T14:14:52.927Z,25.70
2022-10-14T14:17:23.403Z,26.47
2022-10-14T14:19:51.429Z,23.87
2022-10-14T14:22:27.098Z,26.53
2022-10-14T14:25:31.900Z,24.77
2022-10-14T14:28:01.949Z,27.57
2022-10-14T14:30:33.091Z,27.43
2022-10-14T14:33:08.158Z,28.17
2022-10-14T14:35:35.154Z,27.03
2022-10-14T14:38:02.510Z,25.57
2022-10-14T14:40:31.285Z,26.90
2022-10-14T14:43:01.107Z,28.27
2022-10-14T14:45:31.216Z,26.37
2022-10-14T14:48:03.160Z,28.27
2022-10-14T14:50:44.201Z,26.47
2022-10-14T14:53:29.550Z,26.23
2022-10-14T14:55:56.477Z,25.13
2022-10-14T14:58:34.689Z,25.60
2022-10-14T15:01:02.884Z,24.90
2022-10-14T15:03:34.614Z,25.73
2022-10-14T15:06:06.434Z,24.40
2022-10-14T15:08:39.111Z,25.37
2022-10-14T15:11:06.485Z,25.07
2022-10-14T15:13:39.586Z,26.40
2022-10-14T15:16:07.890Z,26.13
2022-10-14T15:18:37.607Z,23.23
2022-10-14T15:21:19.008Z,25.10
2022-10-14T15:23:49.115Z,24.53
2022-10-14T15:26:28.156Z,25.63
2022-10-14T15:29:14.633Z,25.20
2022-10-14T15:31:44.984Z,25.80
2022-10-14T15:34:18.480Z,24.77
2022-10-14T15:36:45.757Z,26.27
2022-10-14T15:39:13.907Z,26.43
2022-10-14T15:41:44.061Z,25.60
2022-10-14T15:44:11.549Z,27.03
2022-10-14T15:46:58.480Z,25.63
2022-10-14T15:49:36.559Z,27.03
2022-10-14T15:52:03.599Z,26.70
2022-10-14T15:54:30.617Z,27.77
2022-10-14T15:56:58.571Z,30.50
2022-10-14T15:59:26.301Z,27.23
2022-10-14T16:01:53.527Z,27.33
2022-10-14T16:04:24.752Z,29.30
2022-10-14T16:06:55.359Z,27.60
2022-10-14T16:09:23.777Z,28.50
2022-10-14T16:11:57.234Z,27.97
2022-10-14T16:14:27.726Z,26.27
2022-10-14T16:16:55.207Z,25.63
2022-10-14T16:19:22.420Z,28.03
2022-10-14T16:21:50.044Z,27.93
2022-10-14T16:24:20.570Z,27.97
2022-10-14T16:26:51.598Z,29.10
2022-10-14T16:29:20.278Z,28.40
2022-10-14T16:31:49.780Z,28.87
2022-10-14T16:34:22.360Z,28.70
2022-10-14T16:36:50.576Z,29.40
2022-10-14T16:39:19.183Z,27.00
2022-10-14T16:41:46.742Z,27.37
2022-10-14T16:44:24.816Z,28.33
2022-10-14T16:47:15.417Z,26.63
2022-10-14T16:49:45.641Z,26.10
2022-10-14T16:52:13.429Z,25.57
2022-10-14T16:54:40.731Z,27.10
2022-10-14T16:57:08.712Z,27.20
2022-10-14T16:59:35.971Z,27.63
2022-10-14T17:02:03.832Z,26.07
2022-10-14T17:04:30.916Z,25.23
2022-10-14T17:06:58.484Z,26.10
2022-10-14T17:12:01.519Z,23.90
2022-10-14T17:14:31.196Z,24.87
2022-10-14T17:16:59.759Z,25.03
2022-10-14T17:19:27.224Z,24.80
2022-10-14T17:21:54.313Z,24.17
2022-10-14T17:24:22.104Z,24.77
2022-10-14T17:26:49.144Z,24.43
2022-10-14T17:29:16.187Z,24.47
2022-10-14T17:31:45.494Z,24.50
2022-10-14T17:34:12.632Z,27.30
2022-10-14T17:36:41.545Z,26.87
2022-10-14T17:39:16.465Z,26.20
2022-10-14T17:41:48.377Z,33.63
2022-10-14T17:44:15.347Z,31.70
2022-10-14T17:46:42.417Z,29.70
2022-10-14T17:49:10.045Z,26.73
2022-10-14T17:51:38.194Z,26.10
2022-10-14T17:54:07.486Z,27.20
2022-10-14T17:56:36.814Z,25.13
2022-10-14T17:59:10.462Z,25.27
2022-10-14T18:02:00.949Z,25.60
2022-10-14T18:04:24.501Z,25.23
2022-10-14T18:06:52.684Z,25.30
2022-10-14T18:09:19.751Z,25.80
2022-10-14T18:12:07.742Z,26.73
2022-10-14T18:14:35.928Z,24.47
2022-10-14T18:17:02.927Z,24.67
2022-10-14T18:19:29.887Z,23.70
2022-10-14T18:21:57.124Z,22.17
2022-10-14T18:24:24.496Z,24.17
2022-10-14T18:26:52.392Z,23.47
2022-10-14T18:29:19.559Z,24.30
2022-10-14T18:31:48.294Z,23.83
2022-10-14T18:34:15.283Z,23.30
2022-10-14T18:36:42.708Z,24.50
2022-10-14T18:39:12.390Z,26.00
2022-10-14T18:41:39.723Z,26.37
2022-10-14T18:44:07.177Z,25.37
2022-10-14T18:46:36.327Z,25.60
2022-10-14T18:49:04.667Z,24.37
2022-10-14T18:51:35.094Z,25.73
2022-10-14T18:54:07.875Z,28.27
2022-10-14T18:56:38.796Z,28.10
2022-10-14T18:59:09.533Z,25.27
2022-10-14T19:01:37.868Z,27.33
2022-10-14T19:04:06.816Z,26.27
2022-10-14T19:06:34.787Z,25.00
2022-10-14T19:09:02.030Z,24.67
2022-10-14T19:11:30.423Z,25.23
2022-10-14T19:13:59.032Z,27.23
2022-10-14T19:16:31.805Z,26.87
2022-10-14T19:19:01.361Z,27.53
2022-10-14T19:21:31.288Z,27.20
2022-10-14T19:23:59.525Z,24.20
2022-10-14T19:26:31.074Z,22.73
2022-10-14T19:28:59.650Z,25.47
2022-10-14T19:31:29.984Z,24.70
2022-10-14T19:33:59.708Z,27.83
2022-10-14T19:36:26.982Z,25.47
2022-10-14T19:38:57.960Z,27.37
2022-10-14T19:41:30.505Z,23.87
2022-10-14T19:43:59.094Z,24.07
2022-10-14T19:46:28.258Z,27.90
2022-10-14T19:48:57.331Z,26.80
2022-10-14T19:51:25.115Z,28.80
2022-10-14T19:53:53.799Z,28.27
2022-10-14T19:56:20.857Z,28.43
2022-10-14T19:58:53.001Z,28.23
2022-10-14T20:01:23.512Z,30.10
2022-10-14T20:03:51.778Z,31.13
2022-10-14T20:06:20.147Z,32.33
2022-10-14T20:08:47.187Z,31.03
2022-10-14T20:11:16.899Z,33.10
2022-10-14T20:13:45.006Z,33.27
2022-10-14T20:16:13.220Z,32.90
2022-10-14T20:18:40.524Z,31.57
2022-10-14T20:21:08.809Z,29.87
2022-10-14T20:23:38.308Z,30.80
2022-10-14T20:26:07.971Z,31.37
2022-10-14T20:28:36.202Z,31.67
2022-10-14T20:31:10.662Z,30.70
2022-10-14T20:33:38.043Z,33.40
2022-10-14T20:36:15.208Z,33.53
2022-10-14T20:38:43.658Z,32.40
2022-10-14T20:41:22.621Z,32.63
2022-10-14T20:43:50.244Z,33.73
2022-10-14T20:46:18.074Z,30.40
2022-10-14T20:48:46.565Z,32.07
2022-10-14T20:51:17.911Z,34.07
2022-10-14T20:53:45.019Z,33.67
2022-10-14T20:56:13.539Z,35.03
2022-10-14T20:58:40.806Z,33.60
2022-10-14T21:01:13.762Z,31.80
2022-10-14T21:03:42.639Z,32.50
2022-10-14T21:06:13.077Z,34.67
2022-10-14T21:08:40.408Z,33.97
2022-10-14T21:11:13.761Z,33.97
2022-10-14T21:13:53.436Z,31.50
2022-10-14T21:16:26.513Z,35.33
2022-10-14T21:19:07.891Z,36.27
2022-10-14T21:21:38.036Z,34.73
2022-10-14T21:24:05.931Z,33.30
2022-10-14T21:26:33.113Z,32.70
2022-10-14T21:29:02.562Z,32.40
2022-10-14T21:31:30.398Z,30.30
2022-10-14T21:34:05.122Z,34.40
2022-10-14T21:36:34.171Z,33.60
2022-10-14T21:39:04.467Z,33.53
2022-10-14T21:41:31.614Z,33.53
2022-10-14T21:43:59.399Z,36.17
2022-10-14T21:46:27.016Z,34.53
2022-10-14T21:48:58.815Z,34.93
2022-10-14T21:51:30.294Z,36.27
2022-10-14T21:53:57.967Z,35.83
2022-10-14T21:56:25.955Z,32.40
2022-10-14T21:58:53.722Z,29.90
2022-10-14T22:01:29.092Z,32.47
2022-10-14T22:04:00.294Z,33.20
2022-10-14T22:06:28.231Z,30.90
2022-10-14T22:08:57.828Z,33.93
2022-10-14T22:11:30.778Z,33.40
2022-10-14T22:14:00.357Z,38.30
2022-10-14T22:16:29.206Z,33.67
2022-10-14T22:18:59.211Z,33.77
2022-10-14T22:21:27.861Z,32.47
2022-10-14T22:23:54.941Z,33.33
2022-10-14T22:26:24.289Z,33.97
2022-10-14T22:29:15.677Z,38.40
2022-10-14T22:31:43.647Z,37.37
2022-10-14T22:34:13.132Z,34.50
2022-10-14T22:36:40.720Z,33.53
2022-10-14T22:39:13.385Z,34.50
2022-10-14T22:41:40.373Z,34.37
2022-10-14T22:44:08.498Z,33.23
2022-10-14T22:46:37.741Z,38.00
2022-10-14T22:49:05.131Z,36.63
2022-10-14T22:51:35.036Z,37.30
2022-10-14T22:54:02.636Z,33.90
2022-10-14T22:56:31.561Z,38.77
2022-10-14T22:59:00.763Z,37.43
2022-10-14T23:01:28.102Z,38.17
2022-10-14T23:03:56.976Z,35.97
2022-10-14T23:06:24.516Z,33.97
2022-10-14T23:08:51.500Z,32.27
2022-10-14T23:11:20.812Z,32.23
2022-10-14T23:13:48.253Z,33.60
2022-10-14T23:16:18.183Z,35.50
2022-10-14T23:18:46.490Z,33.40
2022-10-14T23:21:23.223Z,33.23
2022-10-14T23:23:51.430Z,36.03
2022-10-14T23:26:22.416Z,38.03
2022-10-14T23:28:55.087Z,37.20
2022-10-14T23:31:28.430Z,36.63
2022-10-14T23:33:57.616Z,36.17
2022-10-14T23:36:24.623Z,36.70
2022-10-14T23:38:55.339Z,36.53
2022-10-14T23:41:23.169Z,36.20
2022-10-14T23:43:51.591Z,37.13
2022-10-14T23:46:19.591Z,37.37
2022-10-14T23:48:55.418Z,35.37
2022-10-14T23:51:33.515Z,36.83
2022-10-14T23:54:00.474Z,36.37
2022-10-14T23:56:27.481Z,36.50
2022-10-14T23:58:54.396Z,34.90
